Time;durP1;ratioP1;P1;durP2;ratioP2;P2;SDS_P1;SDS_P2;PMS_P1;PMS_P2;Temp;Humidity;BMP_temperature;BMP_pressure;BME280_temperature;BME280_humidity;BME280_pressure;Samples;Min_cycle;Max_cycle;Signal;HPM_P1;HPM_P2
2022/09/05 00:00:07;;;;;;;0.35;0.30;;;17.30;99.90;;;;;;5067441;28;20068;-73
2022/09/05 00:02:35;;;;;;;0.45;0.38;;;17.20;99.90;;;;;;5068261;28;20029;-72
2022/09/05 00:05:15;;;;;;;1.55;0.45;;;17.20;99.90;;;;;;5068729;28;20025;-73
2022/09/05 00:07:55;;;;;;;0.30;0.30;;;17.20;99.90;;;;;;5067748;28;20045;-73
2022/09/05 00:11:00;;;;;;;1.95;0.57;;;17.10;99.90;;;;;;5068280;28;20562;-73
2022/09/05 00:13:31;;;;;;;5.18;0.70;;;16.90;99.90;;;;;;5054936;28;20053;-73
2022/09/05 00:16:34;;;;;;;0.38;0.38;;;16.90;99.90;;;;;;5070104;28;20075;-72
2022/09/05 00:19:09;;;;;;;0.03;0.03;;;16.80;99.90;;;;;;5068705;28;20448;-73
2022/09/05 00:21:44;;;;;;;0.43;0.40;;;16.80;99.90;;;;;;5069129;28;20075;-73
2022/09/05 00:24:33;;;;;;;0.27;0.20;;;16.70;99.90;;;;;;5069885;28;20253;-73
2022/09/05 00:27:25;;;;;;;0.52;0.47;;;16.70;99.90;;;;;;5072454;28;20299;-73
2022/09/05 00:30:03;;;;;;;1.08;0.82;;;16.70;99.90;;;;;;5073748;28;20072;-73
2022/09/05 00:32:50;;;;;;;0.75;0.20;;;16.70;99.90;;;;;;5072324;28;20045;-73
2022/09/05 00:35:25;;;;;;;0.30;0.30;;;16.70;99.90;;;;;;5073036;28;20044;-73
2022/09/05 00:37:52;;;;;;;0.20;0.20;;;16.80;99.90;;;;;;5073495;28;20114;-73
2022/09/05 00:40:26;;;;;;;1.40;0.80;;;16.70;99.90;;;;;;5072384;28;20090;-73
2022/09/05 00:43:06;;;;;;;0.22;0.22;;;16.60;99.90;;;;;;5070808;28;20037;-73
2022/09/05 00:45:42;;;;;;;0.00;0.00;;;16.70;99.90;;;;;;5071954;28;20096;-72
2022/09/05 00:48:11;;;;;;;0.45;0.40;;;16.60;99.90;;;;;;5072094;28;20131;-72
2022/09/05 00:51:04;;;;;;;2.53;0.57;;;16.60;99.90;;;;;;5069968;28;20123;-73
2022/09/05 00:54:04;;;;;;;0.30;0.28;;;16.70;99.90;;;;;;5068704;28;20419;-73
2022/09/05 00:56:54;;;;;;;1.52;0.30;;;16.80;99.90;;;;;;5072089;28;20055;-73
2022/09/05 00:59:23;;;;;;;1.02;0.95;;;16.70;99.90;;;;;;5070378;28;20073;-72
2022/09/05 01:02:01;;;;;;;0.35;0.32;;;16.70;99.90;;;;;;5070830;28;20093;-73
2022/09/05 01:04:56;;;;;;;0.52;0.32;;;16.60;99.90;;;;;;5071006;28;20052;-74
2022/09/05 01:07:50;;;;;;;0.55;0.50;;;16.60;99.90;;;;;;5071169;28;20041;-73
2022/09/05 01:10:43;;;;;;;0.32;0.32;;;16.40;99.90;;;;;;5070901;28;20100;-72
2022/09/05 01:13:20;;;;;;;1.08;0.30;;;16.30;99.90;;;;;;5072039;28;20052;-72
2022/09/05 01:16:12;;;;;;;0.30;0.30;;;16.30;99.90;;;;;;5072759;28;20075;-73
2022/09/05 01:19:11;;;;;;;0.57;0.50;;;16.20;99.90;;;;;;5072297;28;20051;-72
2022/09/05 01:22:16;;;;;;;0.47;0.25;;;16.20;99.90;;;;;;5070555;28;20041;-73
2022/09/05 01:24:52;;;;;;;0.05;0.05;;;16.20;99.90;;;;;;5033255;28;20511;-73
2022/09/05 01:27:52;;;;;;;0.75;0.38;;;16.00;99.90;;;;;;5070796;28;20095;-73
2022/09/05 01:30:34;;;;;;;0.28;0.28;;;16.00;99.90;;;;;;5072416;28;20124;-73
2022/09/05 01:33:09;;;;;;;0.95;0.60;;;15.80;99.90;;;;;;5073469;28;20049;-74
2022/09/05 01:36:06;;;;;;;0.45;0.32;;;15.80;99.90;;;;;;5072525;28;20068;-73
2022/09/05 01:38:40;;;;;;;0.28;0.28;;;15.70;99.90;;;;;;5072253;28;20040;-73
2022/09/05 01:41:20;;;;;;;2.83;1.65;;;15.60;99.90;;;;;;5072121;28;20049;-73
2022/09/05 01:44:04;;;;;;;0.52;0.52;;;15.50;99.90;;;;;;5070977;28;20037;-73
2022/09/05 01:46:43;;;;;;;0.95;0.73;;;15.40;99.90;;;;;;5071281;28;20041;-73
2022/09/05 01:49:23;;;;;;;0.20;0.13;;;15.30;99.90;;;;;;5073391;28;20041;-73
2022/09/05 01:52:10;;;;;;;0.30;0.25;;;15.20;99.90;;;;;;5071237;28;20125;-72
2022/09/05 01:54:46;;;;;;;4.10;0.73;;;15.00;99.90;;;;;;5071635;28;20036;-73
2022/09/05 01:57:34;;;;;;;1.02;0.85;;;15.00;99.90;;;;;;5071944;28;20068;-72
2022/09/05 02:00:08;;;;;;;0.60;0.35;;;15.10;99.90;;;;;;5072716;28;20094;-73
2022/09/05 02:03:02;;;;;;;2.25;1.10;;;14.90;99.90;;;;;;5070795;28;20057;-73
2022/09/05 02:06:07;;;;;;;0.20;0.13;;;14.90;99.90;;;;;;5070686;28;20052;-73
2022/09/05 02:08:45;;;;;;;1.55;0.80;;;14.90;99.90;;;;;;5070865;28;20052;-72
2022/09/05 02:11:12;;;;;;;0.38;0.38;;;14.80;99.90;;;;;;5071626;28;20125;-73
2022/09/05 02:13:59;;;;;;;0.55;0.55;;;14.80;99.90;;;;;;5071003;28;20047;-73
2022/09/05 02:16:33;;;;;;;1.90;1.17;;;14.90;99.90;;;;;;5070305;28;20508;-73
2022/09/05 02:19:08;;;;;;;0.63;0.63;;;14.90;99.90;;;;;;5070993;28;20044;-72
2022/09/05 02:21:39;;;;;;;0.60;0.47;;;14.80;99.90;;;;;;5071075;28;20566;-73
2022/09/05 02:24:24;;;;;;;1.75;0.52;;;14.70;99.90;;;;;;5072350;28;20052;-74
2022/09/05 02:27:23;;;;;;;0.90;0.20;;;14.50;99.90;;;;;;5072937;28;20086;-73
2022/09/05 02:30:08;;;;;;;1.52;1.00;;;14.50;99.90;;;;;;5073314;28;20060;-73
2022/09/05 02:32:55;;;;;;;0.52;0.40;;;14.30;99.90;;;;;;5072402;28;20037;-73
2022/09/05 02:35:47;;;;;;;0.32;0.32;;;14.30;99.90;;;;;;5072260;28;20045;-74
2022/09/05 02:38:18;;;;;;;0.40;0.40;;;14.20;99.90;;;;;;5072206;28;20097;-73
2022/09/05 02:40:56;;;;;;;0.55;0.52;;;14.20;99.90;;;;;;5073188;28;20044;-73
2022/09/05 02:43:33;;;;;;;0.57;0.47;;;14.10;99.90;;;;;;5072217;28;20036;-72
2022/09/05 02:46:05;;;;;;;0.85;0.35;;;14.10;99.90;;;;;;5071626;28;20076;-74
2022/09/05 02:48:36;;;;;;;1.40;0.73;;;14.20;99.90;;;;;;5072714;28;20036;-72
2022/09/05 02:51:31;;;;;;;0.55;0.22;;;14.30;99.90;;;;;;5073053;28;20041;-72
2022/09/05 02:54:10;;;;;;;0.30;0.30;;;14.20;99.90;;;;;;5073289;28;20044;-74
2022/09/05 02:56:56;;;;;;;1.55;0.65;;;14.10;99.90;;;;;;5072777;28;20037;-74
2022/09/05 02:59:31;;;;;;;0.40;0.35;;;14.10;99.90;;;;;;5031537;28;20068;-72
2022/09/05 03:02:00;;;;;;;1.85;1.17;;;14.00;99.90;;;;;;5072042;28;20045;-73
2022/09/05 03:04:33;;;;;;;0.13;0.13;;;14.00;99.90;;;;;;5073314;28;20087;-73
2022/09/05 03:07:12;;;;;;;1.20;0.95;;;13.90;99.90;;;;;;5073737;28;20059;-73
2022/09/05 03:10:07;;;;;;;0.80;0.57;;;13.90;99.90;;;;;;5073902;28;20056;-73
2022/09/05 03:13:10;;;;;;;1.00;0.28;;;13.80;99.90;;;;;;5073089;28;20053;-73
2022/09/05 03:16:13;;;;;;;2.00;0.65;;;13.80;99.90;;;;;;5072769;28;20052;-73
2022/09/05 03:19:15;;;;;;;4.90;1.30;;;13.60;99.90;;;;;;5072153;28;20045;-74
2022/09/05 03:22:16;;;;;;;0.38;0.38;;;13.50;99.90;;;;;;5072931;28;20033;-73
2022/09/05 03:25:15;;;;;;;0.30;0.30;;;13.40;99.90;;;;;;5041656;28;20045;-73
2022/09/05 03:28:09;;;;;;;1.45;0.80;;;13.40;99.90;;;;;;5071951;28;20044;-73
2022/09/05 03:30:58;;;;;;;1.20;0.88;;;13.40;99.90;;;;;;5072405;28;20064;-73
2022/09/05 03:33:48;;;;;;;0.10;0.10;;;13.40;99.90;;;;;;5061123;28;20057;-73
2022/09/05 03:36:44;;;;;;;1.75;0.98;;;13.30;99.90;;;;;;5072484;28;20060;-73
2022/09/05 03:39:22;;;;;;;0.20;0.20;;;13.30;99.90;;;;;;5071317;28;20048;-73
2022/09/05 03:42:17;;;;;;;0.40;0.40;;;13.30;99.90;;;;;;5071800;28;20048;-73
2022/09/05 03:45:02;;;;;;;0.70;0.68;;;13.30;99.90;;;;;;5071644;28;20040;-73
2022/09/05 03:47:27;;;;;;;0.70;0.70;;;13.40;99.90;;;;;;5071303;28;20049;-73
2022/09/05 03:50:07;;;;;;;0.43;0.43;;;13.30;99.90;;;;;;5071017;28;20047;-72
2022/09/05 03:52:42;;;;;;;2.55;1.00;;;13.20;99.90;;;;;;5071548;28;20068;-73
2022/09/05 03:55:26;;;;;;;2.10;1.10;;;13.30;99.90;;;;;;5072790;28;20060;-73
2022/09/05 03:58:23;;;;;;;1.85;1.10;;;14.40;99.90;;;;;;5072106;28;20033;-73
2022/09/05 04:01:19;;;;;;;0.38;0.38;;;13.20;99.90;;;;;;5057772;28;20051;-73
2022/09/05 04:03:56;;;;;;;1.02;0.82;;;13.20;99.90;;;;;;5075808;28;20049;-72
2022/09/05 04:06:44;;;;;;;0.88;0.52;;;13.20;99.90;;;;;;5075853;28;20045;-72
2022/09/05 04:09:35;;;;;;;0.10;0.10;;;13.10;99.90;;;;;;5075238;28;20065;-73
2022/09/05 04:12:14;;;;;;;0.10;0.10;;;13.00;99.90;;;;;;5075102;28;20044;-72
2022/09/05 04:15:00;;;;;;;0.70;0.52;;;12.90;99.90;;;;;;5074947;28;20040;-73
2022/09/05 04:17:51;;;;;;;0.17;0.17;;;12.90;99.90;;;;;;5075185;28;20092;-73
2022/09/05 04:20:42;;;;;;;0.30;0.30;;;12.90;99.90;;;;;;5057322;28;20455;-72
2022/09/05 04:23:15;;;;;;;0.22;0.22;;;12.90;99.90;;;;;;5075024;28;20046;-73
2022/09/05 04:26:11;;;;;;;3.72;1.02;;;12.80;99.90;;;;;;5074916;28;20037;-73
2022/09/05 04:28:51;;;;;;;0.38;0.30;;;12.90;99.90;;;;;;5075830;28;20037;-73
2022/09/05 04:31:25;;;;;;;0.30;0.30;;;12.90;99.90;;;;;;5075302;28;20029;-73
2022/09/05 04:34:21;;;;;;;0.90;0.65;;;12.90;99.90;;;;;;5075681;28;20029;-73
2022/09/05 04:37:02;;;;;;;1.02;0.65;;;12.80;99.90;;;;;;5075878;28;20516;-73
2022/09/05 04:39:29;;;;;;;0.75;0.73;;;12.90;99.90;;;;;;5076201;28;20056;-73
2022/09/05 04:42:04;;;;;;;0.00;0.00;;;12.90;99.90;;;;;;5074806;28;20049;-72
2022/09/05 04:44:52;;;;;;;2.28;1.38;;;12.90;99.90;;;;;;5073877;28;20052;-73
2022/09/05 04:47:38;;;;;;;2.20;0.98;;;13.00;99.90;;;;;;5075477;28;20237;-73
2022/09/05 04:50:11;;;;;;;0.50;0.43;;;13.10;99.90;;;;;;5074490;28;20044;-73
2022/09/05 04:52:58;;;;;;;0.75;0.52;;;13.10;99.90;;;;;;5075458;28;20056;-73
2022/09/05 04:55:36;;;;;;;0.38;0.32;;;13.10;99.90;;;;;;5075456;28;20044;-74
2022/09/05 04:58:39;;;;;;;3.13;1.58;;;13.00;99.90;;;;;;5075667;28;20059;-73
2022/09/05 05:01:14;;;;;;;1.38;0.57;;;12.90;99.90;;;;;;5056940;28;20056;-73
2022/09/05 05:03:41;;;;;;;0.20;0.17;;;12.90;99.90;;;;;;5072853;28;20045;-72
2022/09/05 05:06:37;;;;;;;0.43;0.43;;;12.90;99.90;;;;;;5072974;28;20049;-73
2022/09/05 05:09:32;;;;;;;0.63;0.63;;;12.80;99.90;;;;;;5073401;28;20041;-74
2022/09/05 05:12:05;;;;;;;1.15;1.05;;;12.70;99.90;;;;;;5071985;28;20045;-74
2022/09/05 05:14:56;;;;;;;0.20;0.20;;;12.70;99.90;;;;;;5072545;28;20041;-72
2022/09/05 05:17:32;;;;;;;0.80;0.55;;;12.80;99.90;;;;;;5072059;28;20065;-72
2022/09/05 05:20:15;;;;;;;11.50;0.63;;;12.80;99.90;;;;;;5071445;28;20037;-73
2022/09/05 05:22:59;;;;;;;0.90;0.65;;;13.00;99.90;;;;;;5072472;28;20041;-74
2022/09/05 05:25:26;;;;;;;0.38;0.38;;;13.10;99.90;;;;;;5074313;28;20037;-73
2022/09/05 05:28:21;;;;;;;2.67;1.52;;;13.00;99.90;;;;;;5074971;28;20091;-74
2022/09/05 05:30:46;;;;;;;0.43;0.43;;;12.90;99.90;;;;;;5057884;28;20060;-72
2022/09/05 05:33:36;;;;;;;0.15;0.15;;;13.00;99.90;;;;;;5073133;28;20044;-72
2022/09/05 05:36:07;;;;;;;0.60;0.60;;;13.00;99.90;;;;;;5073547;28;20033;-73
2022/09/05 05:39:06;;;;;;;0.88;0.65;;;13.00;99.90;;;;;;5074021;28;20504;-73
2022/09/05 05:41:47;;;;;;;0.03;0.03;;;13.00;99.90;;;;;;5074055;28;20057;-73
2022/09/05 05:44:26;;;;;;;0.57;0.52;;;13.00;99.90;;;;;;5073721;28;20045;-73
2022/09/05 05:47:18;;;;;;;2.42;1.10;;;13.00;99.90;;;;;;5073040;28;20041;-73
2022/09/05 05:50:01;;;;;;;1.27;0.85;;;13.10;99.90;;;;;;5072395;28;20037;-73
2022/09/05 05:52:52;;;;;;;1.58;0.40;;;13.20;99.90;;;;;;5073627;28;20057;-73
2022/09/05 05:55:31;;;;;;;0.20;0.20;;;13.30;99.90;;;;;;5073360;28;20052;-73
2022/09/05 05:58:12;;;;;;;0.68;0.47;;;13.30;99.90;;;;;;5072268;28;20041;-72
2022/09/05 06:01:11;;;;;;;0.82;0.73;;;13.50;99.90;;;;;;5073135;28;20065;-73
2022/09/05 06:04:14;;;;;;;1.23;0.85;;;13.80;99.90;;;;;;5072805;28;20068;-74
2022/09/05 06:06:56;;;;;;;1.27;0.60;;;13.90;99.90;;;;;;5071986;28;20076;-73
2022/09/05 06:09:40;;;;;;;3.10;1.05;;;14.10;99.90;;;;;;5072719;28;20028;-72
2022/09/05 06:12:26;;;;;;;0.40;0.38;;;14.30;99.90;;;;;;5053462;28;20057;-73
2022/09/05 06:15:11;;;;;;;1.38;0.68;;;14.60;99.90;;;;;;5072887;28;20044;-72
2022/09/05 06:18:02;;;;;;;0.52;0.38;;;15.40;99.90;;;;;;5070180;28;20053;-72
2022/09/05 06:20:52;;;;;;;0.85;0.38;;;16.10;99.90;;;;;;5073322;28;20136;-73
2022/09/05 06:24:15;;;;;;;0.47;0.35;;;16.70;99.90;;;;;;5072098;28;20041;-72
2022/09/05 06:27:20;;;;;;;3.25;0.68;;;17.30;99.90;;;;;;4991263;28;20089;-73
2022/09/05 06:30:04;;;;;;;0.43;0.43;;;18.00;99.90;;;;;;5069334;28;20073;-73
2022/09/05 06:32:46;;;;;;;0.70;0.35;;;18.10;99.90;;;;;;5069221;28;20041;-73
2022/09/05 06:35:44;;;;;;;0.30;0.30;;;18.00;99.90;;;;;;5067845;28;20052;-73
2022/09/05 06:38:25;;;;;;;0.65;0.43;;;18.30;99.90;;;;;;5066418;28;20097;-73
2022/09/05 06:41:22;;;;;;;0.55;0.55;;;18.70;99.90;;;;;;5065878;28;20053;-73
2022/09/05 06:44:21;;;;;;;6.03;2.35;;;18.70;99.90;;;;;;5065497;28;20036;-73
2022/09/05 06:46:51;;;;;;;0.47;0.47;;;19.30;99.90;;;;;;5066015;28;20037;-73
2022/09/05 06:49:24;;;;;;;0.60;0.43;;;19.30;99.90;;;;;;5065242;28;20041;-73
2022/09/05 06:52:22;;;;;;;0.40;0.40;;;19.80;99.90;;;;;;5063828;28;20087;-72
2022/09/05 06:55:21;;;;;;;0.47;0.47;;;20.10;99.90;;;;;;5063659;28;20071;-73
2022/09/05 06:58:13;;;;;;;0.57;0.47;;;19.90;99.90;;;;;;5067300;28;20048;-73
2022/09/05 07:00:44;;;;;;;0.60;0.52;;;20.00;99.90;;;;;;5062816;28;20384;-73
2022/09/05 07:03:58;;;;;;;0.20;0.20;;;19.90;99.90;;;;;;5044434;28;20093;-74
2022/09/05 07:07:00;;;;;;;2.28;0.93;;;19.80;99.90;;;;;;5024860;28;20057;-75
2022/09/05 07:09:34;;;;;;;0.28;0.28;;;20.00;99.90;;;;;;5063273;28;20056;-73
2022/09/05 07:12:18;;;;;;;0.52;0.40;;;20.20;99.90;;;;;;5063204;28;20397;-73
2022/09/05 07:15:01;;;;;;;0.65;0.65;;;20.50;99.90;;;;;;5068845;28;20078;-74
2022/09/05 07:17:54;;;;;;;1.15;0.88;;;20.60;99.90;;;;;;5067720;28;20507;-73
2022/09/05 07:20:39;;;;;;;0.60;0.57;;;20.40;99.90;;;;;;5066639;28;20048;-74
2022/09/05 07:23:49;;;;;;;0.50;0.50;;;19.90;99.90;;;;;;5064845;28;20457;-73
2022/09/05 07:26:18;;;;;;;2.35;0.90;;;19.60;99.90;;;;;;5028747;28;20419;-73
2022/09/05 07:28:48;;;;;;;0.45;0.43;;;19.40;99.90;;;;;;5065786;28;20478;-73
2022/09/05 07:31:17;;;;;;;0.30;0.30;;;19.20;99.90;;;;;;5063640;28;20049;-73
2022/09/05 07:33:45;;;;;;;1.33;0.75;;;19.10;99.90;;;;;;5060914;28;20068;-73
2022/09/05 07:36:16;;;;;;;0.70;0.60;;;19.20;99.90;;;;;;5066468;28;20587;-74
2022/09/05 07:38:49;;;;;;;0.40;0.40;;;19.30;99.90;;;;;;5069593;28;20064;-73
2022/09/05 07:41:33;;;;;;;2.08;1.27;;;19.30;99.90;;;;;;5070411;28;20037;-73
2022/09/05 07:44:09;;;;;;;0.88;0.68;;;19.40;99.90;;;;;;5065678;28;20041;-74
2022/09/05 07:46:37;;;;;;;3.30;1.25;;;19.50;99.90;;;;;;5065421;28;20048;-72
2022/09/05 07:49:17;;;;;;;0.95;0.90;;;19.70;99.90;;;;;;5065960;28;20079;-73
2022/09/05 07:51:54;;;;;;;1.00;0.70;;;19.80;99.90;;;;;;5066603;28;20120;-73
2022/09/05 07:54:26;;;;;;;2.28;0.50;;;20.10;99.90;;;;;;5068789;28;20033;-75
2022/09/05 07:57:04;;;;;;;1.42;0.98;;;20.70;99.90;;;;;;5065687;28;20051;-73
2022/09/05 07:59:36;;;;;;;0.77;0.65;;;21.40;99.90;;;;;;5067549;28;20045;-73
2022/09/05 08:02:04;;;;;;;0.35;0.30;;;22.40;98.00;;;;;;5065612;28;20052;-74
2022/09/05 08:04:32;;;;;;;0.32;0.32;;;22.30;95.70;;;;;;5068084;28;20064;-74
2022/09/05 08:07:03;;;;;;;0.82;0.55;;;23.00;90.50;;;;;;5065759;28;20037;-74
2022/09/05 08:09:36;;;;;;;8.57;0.68;;;23.40;86.00;;;;;;5070568;28;20041;-73
2022/09/05 08:12:12;;;;;;;1.02;0.65;;;23.80;84.80;;;;;;5070454;28;20045;-73
2022/09/05 08:14:43;;;;;;;;;;;24.10;72.20;;;;;;5069922;28;20416;-73
2022/09/05 08:17:18;;;;;;;0.38;0.22;;;24.90;59.60;;;;;;5071275;28;19983;-73
2022/09/05 08:19:57;;;;;;;0.55;0.55;;;25.50;47.70;;;;;;5069520;28;20403;-74
2022/09/05 08:22:29;;;;;;;1.25;0.73;;;26.40;45.40;;;;;;5070034;28;20059;-74
2022/09/05 08:25:22;;;;;;;1.73;0.70;;;26.40;38.30;;;;;;5067720;28;20045;-74
2022/09/05 08:28:18;;;;;;;0.05;0.05;;;26.40;23.70;;;;;;5067962;28;20045;-74
2022/09/05 08:30:49;;;;;;;2.53;1.15;;;26.70;29.60;;;;;;5065722;28;20037;-74
2022/09/05 08:33:24;;;;;;;1.25;0.90;;;27.30;21.40;;;;;;5064783;28;20071;-74
2022/09/05 08:35:56;;;;;;;0.32;0.22;;;27.30;15.20;;;;;;5062717;28;20068;-74
2022/09/05 08:38:23;;;;;;;0.22;0.20;;;26.70;20.70;;;;;;5069325;28;20064;-74
2022/09/05 08:40:51;;;;;;;0.95;0.88;;;27.30;16.10;;;;;;5067183;28;20100;-73
2022/09/05 08:43:37;;;;;;;1.05;0.73;;;27.10;16.60;;;;;;5067996;28;20045;-74
2022/09/05 08:46:18;;;;;;;1.33;0.70;;;27.10;18.60;;;;;;5068329;28;20044;-74
2022/09/05 08:48:57;;;;;;;0.45;0.38;;;27.00;19.70;;;;;;5067573;28;20045;-74
2022/09/05 08:51:26;;;;;;;3.03;0.80;;;26.80;20.00;;;;;;5065279;28;20129;-73
2022/09/05 08:54:25;;;;;;;0.88;0.63;;;26.00;26.30;;;;;;5067015;28;20033;-73
2022/09/05 08:57:15;;;;;;;1.20;0.35;;;26.00;32.30;;;;;;5064060;28;20524;-74
2022/09/05 09:00:05;;;;;;;1.00;0.88;;;25.40;38.00;;;;;;5068660;28;20120;-74
2022/09/05 09:03:05;;;;;;;1.35;1.02;;;25.60;39.90;;;;;;5066743;28;20040;-74
2022/09/05 09:05:39;;;;;;;1.23;0.65;;;26.00;36.80;;;;;;5067290;28;20048;-73
2022/09/05 09:08:23;;;;;;;0.70;0.70;;;26.20;33.40;;;;;;5067482;28;20055;-73
2022/09/05 09:10:59;;;;;;;0.63;0.50;;;26.60;27.40;;;;;;5064748;28;20049;-74
2022/09/05 09:13:51;;;;;;;2.55;0.60;;;26.50;25.80;;;;;;5066049;28;20056;-75
2022/09/05 09:16:38;;;;;;;0.28;0.25;;;27.00;29.00;;;;;;5065094;28;20071;-73
2022/09/05 09:19:34;;;;;;;1.77;0.70;;;27.10;26.30;;;;;;5066965;28;20071;-74
2022/09/05 09:22:09;;;;;;;0.73;0.57;;;27.80;18.80;;;;;;5062904;28;20360;-73
2022/09/05 09:24:45;;;;;;;0.60;0.60;;;27.30;19.30;;;;;;5065432;28;20109;-74
2022/09/05 09:27:26;;;;;;;2.65;0.88;;;27.40;19.90;;;;;;5066723;28;20040;-73
2022/09/05 09:29:58;;;;;;;0.77;0.55;;;27.80;17.50;;;;;;5067560;28;20081;-74
2022/09/05 09:32:23;;;;;;;0.45;0.40;;;28.20;16.60;;;;;;5064302;28;20098;-74
2022/09/05 09:35:13;;;;;;;1.73;1.05;;;27.70;15.50;;;;;;5067542;28;20100;-74
2022/09/05 09:37:56;;;;;;;0.10;0.10;;;27.30;16.20;;;;;;5067241;28;20052;-74
2022/09/05 09:41:07;;;;;;;0.38;0.35;;;27.60;12.40;;;;;;5061201;28;20094;-74
2022/09/05 09:44:18;;;;;;;0.57;0.50;;;27.30;16.10;;;;;;5066377;28;20511;-74
2022/09/05 09:46:46;;;;;;;2.10;0.68;;;27.00;16.50;;;;;;5065768;28;20049;-73
2022/09/05 09:49:19;;;;;;;1.00;0.65;;;26.90;18.70;;;;;;5063991;28;20064;-74
2022/09/05 09:51:51;;;;;;;2.22;0.57;;;27.30;16.10;;;;;;5064114;28;20150;-74
2022/09/05 09:54:53;;;;;;;0.85;0.68;;;27.40;17.40;;;;;;5063147;28;20041;-75
2022/09/05 09:57:43;;;;;;;1.75;0.88;;;27.60;12.40;;;;;;5065509;28;20044;-74
2022/09/05 10:00:20;;;;;;;1.00;0.80;;;27.60;11.90;;;;;;5062631;28;20057;-73
2022/09/05 10:03:07;;;;;;;0.10;0.10;;;27.50;11.10;;;;;;5063537;28;20044;-74
2022/09/05 10:06:03;;;;;;;0.75;0.25;;;27.50;11.30;;;;;;5062866;28;20044;-73
2022/09/05 10:08:51;;;;;;;5.75;0.68;;;27.30;11.00;;;;;;5061059;28;20041;-73
2022/09/05 10:11:37;;;;;;;0.45;0.35;;;27.50;12.20;;;;;;5061473;28;20079;-73
2022/09/05 10:14:36;;;;;;;0.20;0.20;;;27.70;9.10;;;;;;5059549;28;20041;-73
2022/09/05 10:17:17;;;;;;;0.75;0.52;;;27.70;9.10;;;;;;5067615;28;20052;-74
2022/09/05 10:20:26;;;;;;;0.38;0.38;;;28.40;12.40;;;;;;5062075;28;20048;-74
2022/09/05 10:23:22;;;;;;;0.68;0.47;;;28.30;6.40;;;;;;5024679;28;20484;-74
2022/09/05 10:26:21;;;;;;;0.25;0.25;;;28.70;3.80;;;;;;5060885;28;20044;-74
2022/09/05 10:29:06;;;;;;;0.35;0.35;;;29.00;1.00;;;;;;5057225;28;20045;-73
2022/09/05 10:31:49;;;;;;;0.22;0.20;;;28.20;2.30;;;;;;5065472;28;20472;-74
2022/09/05 10:34:21;;;;;;;0.15;0.10;;;28.50;4.10;;;;;;5063254;28;20075;-73
2022/09/05 10:37:02;;;;;;;0.35;0.30;;;28.80;3.80;;;;;;5059558;28;20048;-74
2022/09/05 10:39:34;;;;;;;1.02;0.55;;;28.50;1.00;;;;;;5065580;28;20049;-76
2022/09/05 10:42:09;;;;;;;0.70;0.57;;;28.40;1.00;;;;;;5060894;28;20128;-75
2022/09/05 10:44:51;;;;;;;5.05;0.65;;;28.70;1.00;;;;;;5061855;28;20072;-74
2022/09/05 10:47:32;;;;;;;0.20;0.20;;;28.70;1.00;;;;;;5063513;28;20048;-74
2022/09/05 10:50:04;;;;;;;0.75;0.50;;;29.40;1.90;;;;;;5062453;28;20065;-73
2022/09/05 10:52:56;;;;;;;0.75;0.65;;;29.40;1.00;;;;;;5062363;28;20044;-73
2022/09/05 10:55:37;;;;;;;0.10;0.10;;;29.00;1.00;;;;;;5023126;28;20227;-74
2022/09/05 10:58:31;;;;;;;2.42;0.43;;;29.00;1.00;;;;;;5063774;28;20064;-73
2022/09/05 11:01:12;;;;;;;0.45;0.40;;;29.40;1.00;;;;;;5060749;28;20055;-74
2022/09/05 11:03:49;;;;;;;0.30;0.22;;;29.40;1.00;;;;;;5055608;28;20097;-73
2022/09/05 11:06:21;;;;;;;4.97;1.65;;;29.60;1.00;;;;;;5062763;28;20064;-75
2022/09/05 11:09:04;;;;;;;0.28;0.28;;;30.00;1.00;;;;;;5060618;28;20056;-73
2022/09/05 11:11:44;;;;;;;0.65;0.38;;;29.80;1.00;;;;;;5011518;28;20062;-75
2022/09/05 11:14:37;;;;;;;0.30;0.22;;;29.70;1.00;;;;;;5007725;28;20054;-73
2022/09/05 11:17:24;;;;;;;0.30;0.30;;;30.00;1.00;;;;;;5014274;28;20513;-74
2022/09/05 11:20:31;;;;;;;1.95;0.90;;;30.30;1.00;;;;;;5021136;28;20042;-74
2022/09/05 11:23:09;;;;;;;2.00;0.88;;;30.30;1.00;;;;;;5013173;28;20125;-74
2022/09/05 11:25:36;;;;;;;2.75;0.88;;;29.90;1.00;;;;;;5011821;28;20061;-74
2022/09/05 11:28:12;;;;;;;0.13;0.13;;;30.40;1.00;;;;;;5011706;28;20053;-73
2022/09/05 11:30:42;;;;;;;0.03;0.03;;;31.10;1.00;;;;;;5011932;28;20046;-74
2022/09/05 11:33:41;;;;;;;0.38;0.22;;;31.20;1.00;;;;;;5011263;28;20505;-73
2022/09/05 11:36:15;;;;;;;0.80;0.63;;;31.40;1.00;;;;;;5011699;28;20104;-74
2022/09/05 11:38:58;;;;;;;1.60;1.15;;;30.90;1.00;;;;;;5011453;28;20061;-73
2022/09/05 11:41:49;;;;;;;0.32;0.20;;;31.70;1.00;;;;;;5011355;28;20045;-73
2022/09/05 11:44:18;;;;;;;0.52;0.50;;;32.10;1.00;;;;;;5011636;28;20054;-73
2022/09/05 11:46:52;;;;;;;1.35;0.65;;;32.40;1.00;;;;;;5011372;28;20048;-74
2022/09/05 11:49:33;;;;;;;0.47;0.40;;;32.40;1.00;;;;;;5006201;28;20042;-74
2022/09/05 11:52:37;;;;;;;0.40;0.40;;;31.80;1.00;;;;;;5011698;28;20455;-73
2022/09/05 11:55:26;;;;;;;0.30;0.20;;;31.60;1.00;;;;;;5011545;28;20057;-74
2022/09/05 11:58:25;;;;;;;0.10;0.10;;;31.60;1.00;;;;;;5011376;28;20050;-74
2022/09/05 12:01:29;;;;;;;1.65;0.77;;;31.90;1.00;;;;;;5010372;28;20049;-74
2022/09/05 12:04:18;;;;;;;0.32;0.20;;;33.40;1.00;;;;;;5009436;28;20065;-72
2022/09/05 12:07:02;;;;;;;0.13;0.13;;;32.10;1.00;;;;;;5011352;28;20056;-73
2022/09/05 12:09:46;;;;;;;0.30;0.25;;;32.00;1.00;;;;;;5017500;28;20061;-74
2022/09/05 12:12:35;;;;;;;0.20;0.15;;;31.60;1.00;;;;;;5051235;28;20053;-72
2022/09/05 12:15:26;;;;;;;0.47;0.28;;;32.40;1.00;;;;;;5050372;28;20080;-74
2022/09/05 12:18:11;;;;;;;0.15;0.15;;;33.20;1.00;;;;;;5050955;28;20069;-72
2022/09/05 12:20:55;;;;;;;0.17;0.17;;;34.20;1.00;;;;;;5051585;28;20056;-73
2022/09/05 12:24:05;;;;;;;0.75;0.50;;;32.80;1.00;;;;;;5054516;28;20041;-73
2022/09/05 12:26:42;;;;;;;0.60;0.38;;;31.40;1.00;;;;;;5054693;28;20044;-73
2022/09/05 12:29:17;;;;;;;1.75;0.60;;;30.20;1.00;;;;;;5055898;28;20091;-72
2022/09/05 12:31:50;;;;;;;0.38;0.35;;;30.20;1.00;;;;;;5055278;28;20041;-72
2022/09/05 12:34:49;;;;;;;0.55;0.32;;;29.80;1.00;;;;;;5055106;28;20045;-71
2022/09/05 12:37:25;;;;;;;0.03;0.03;;;29.90;1.00;;;;;;5054576;28;20095;-72
2022/09/05 12:39:58;;;;;;;1.25;0.63;;;29.80;1.00;;;;;;5055098;28;20068;-72
2022/09/05 12:42:42;;;;;;;16.75;1.65;;;30.50;1.00;;;;;;5054273;28;20052;-72
2022/09/05 12:45:18;;;;;;;0.38;0.30;;;31.10;1.00;;;;;;5054532;28;20052;-72
2022/09/05 12:47:52;;;;;;;0.55;0.40;;;32.10;1.00;;;;;;5054100;28;20288;-72
2022/09/05 12:50:21;;;;;;;0.00;0.00;;;31.90;1.00;;;;;;5053752;28;20377;-72
2022/09/05 12:53:07;;;;;;;0.20;0.20;;;31.50;1.00;;;;;;5053891;28;20045;-73
2022/09/05 12:55:42;;;;;;;0.77;0.68;;;31.60;1.00;;;;;;5054363;28;20397;-74
2022/09/05 12:58:20;;;;;;;;;;;32.20;1.00;;;;;;5054309;28;20049;-72
2022/09/05 13:00:47;;;;;;;0.05;0.05;;;31.90;1.00;;;;;;5053699;28;20011;-72
2022/09/05 13:03:32;;;;;;;0.13;0.10;;;32.10;1.00;;;;;;5053687;28;20404;-73
2022/09/05 13:06:01;;;;;;;0.17;0.10;;;32.50;1.00;;;;;;5053721;28;20415;-72
2022/09/05 13:08:52;;;;;;;1.45;0.73;;;33.00;1.00;;;;;;5053380;28;20045;-72
2022/09/05 13:11:20;;;;;;;0.25;0.25;;;33.10;1.00;;;;;;5052239;28;20407;-73
2022/09/05 13:13:53;;;;;;;0.00;0.00;;;33.70;1.00;;;;;;5053710;28;20060;-73
2022/09/05 13:16:24;;;;;;;0.30;0.20;;;34.20;1.00;;;;;;5053653;28;20049;-73
2022/09/05 13:19:01;;;;;;;0.05;0.05;;;34.30;1.00;;;;;;5053480;28;20049;-72
2022/09/05 13:21:28;;;;;;;0.93;0.35;;;33.90;1.00;;;;;;5053372;28;20079;-72
2022/09/05 13:24:17;;;;;;;0.20;0.20;;;33.30;1.00;;;;;;5053195;28;20076;-73
2022/09/05 13:27:14;;;;;;;0.10;0.10;;;33.70;1.00;;;;;;5053585;28;20037;-73
2022/09/05 13:30:05;;;;;;;0.10;0.00;;;34.10;1.00;;;;;;5053536;28;20045;-73
2022/09/05 13:32:42;;;;;;;0.13;0.13;;;34.50;1.00;;;;;;5053683;28;20055;-72
2022/09/05 13:35:11;;;;;;;1.33;0.47;;;34.30;1.00;;;;;;5053480;28;20052;-74
2022/09/05 13:37:47;;;;;;;0.10;0.10;;;34.00;1.00;;;;;;5053522;28;20123;-73
2022/09/05 13:40:30;;;;;;;0.20;0.20;;;33.30;1.00;;;;;;5053196;28;20324;-73
2022/09/05 13:43:21;;;;;;;0.35;0.17;;;32.50;1.00;;;;;;5053287;28;20154;-73
2022/09/05 13:46:02;;;;;;;0.15;0.15;;;31.20;1.00;;;;;;5041961;28;20061;-73
2022/09/05 13:48:49;;;;;;;0.63;0.30;;;31.30;1.00;;;;;;5052833;28;20048;-73
2022/09/05 13:51:28;;;;;;;0.08;0.08;;;31.30;1.00;;;;;;5052757;28;20048;-73
2022/09/05 13:54:29;;;;;;;1.55;0.52;;;31.70;1.00;;;;;;5049866;28;20083;-72
2022/09/05 13:57:21;;;;;;;1.95;0.73;;;32.50;1.00;;;;;;5051685;28;20052;-73
2022/09/05 14:00:05;;;;;;;0.00;0.00;;;32.30;1.00;;;;;;5052972;28;20426;-72
2022/09/05 14:02:58;;;;;;;3.15;0.68;;;32.90;1.00;;;;;;5052768;28;20045;-74
2022/09/05 14:05:29;;;;;;;0.00;0.00;;;32.50;1.00;;;;;;5053011;28;20061;-73
2022/09/05 14:08:32;;;;;;;0.30;0.30;;;32.40;1.00;;;;;;5053754;28;20041;-73
2022/09/05 14:11:35;;;;;;;0.32;0.32;;;31.60;1.00;;;;;;5053331;28;20102;-74
2022/09/05 14:14:24;;;;;;;0.43;0.30;;;32.80;1.00;;;;;;5052800;28;20061;-73